createdAt,value
2022-08-22T00:00:27.081Z,1.47
2022-08-22T00:02:56.595Z,1.93
2022-08-22T00:02:58.379Z,1.23
2022-08-22T00:03:15.934Z,1.60
2022-08-22T00:05:58.423Z,1.63
2022-08-22T00:08:36.668Z,1.53
2022-08-22T00:11:15.160Z,1.60
2022-08-22T00:14:01.796Z,1.53
2022-08-22T00:16:40.015Z,1.50
2022-08-22T00:19:17.904Z,1.47
2022-08-22T00:21:52.479Z,1.30
2022-08-22T00:24:26.396Z,1.53
2022-08-22T00:27:01.101Z,1.70
2022-08-22T00:29:40.773Z,1.57
2022-08-22T00:32:20.144Z,2.00
2022-08-22T00:34:54.306Z,1.40
2022-08-22T00:37:29.198Z,1.47
2022-08-22T00:40:03.858Z,1.77
2022-08-22T00:42:54.003Z,1.53
2022-08-22T00:45:59.364Z,1.60
2022-08-22T00:49:08.897Z,1.90
2022-08-22T00:52:05.838Z,1.87
2022-08-22T00:54:52.150Z,1.80
2022-08-22T00:57:40.952Z,1.73
2022-08-22T01:00:20.068Z,1.40
2022-08-22T01:03:18.292Z,1.57
2022-08-22T01:05:58.553Z,1.60
2022-08-22T01:08:54.677Z,1.87
2022-08-22T01:11:36.375Z,1.93
2022-08-22T01:14:34.801Z,1.80
2022-08-22T01:17:39.700Z,1.70
2022-08-22T01:20:55.863Z,1.60
2022-08-22T01:24:02.335Z,1.90
2022-08-22T01:27:09.319Z,2.20
2022-08-22T01:30:04.462Z,1.73
2022-08-22T01:33:11.337Z,1.67
2022-08-22T01:36:07.795Z,1.60
2022-08-22T01:38:56.576Z,1.70
2022-08-22T01:41:51.523Z,2.70
2022-08-22T01:44:41.865Z,1.87
2022-08-22T01:47:19.515Z,2.20
2022-08-22T01:49:53.869Z,1.90
2022-08-22T01:52:37.532Z,1.87
2022-08-22T01:55:14.292Z,2.00
2022-08-22T01:57:54.579Z,2.23
2022-08-22T02:00:34.721Z,2.30
2022-08-22T02:03:23.012Z,2.13
2022-08-22T02:06:00.020Z,1.70
2022-08-22T02:08:39.059Z,2.10
2022-08-22T02:11:10.816Z,1.90
2022-08-22T02:13:52.409Z,1.83
2022-08-22T02:16:27.028Z,1.90
2022-08-22T02:19:07.032Z,2.00
2022-08-22T02:21:45.023Z,1.97
2022-08-22T02:24:29.372Z,2.40
2022-08-22T02:27:13.080Z,2.10
2022-08-22T02:29:49.922Z,2.30
2022-08-22T02:32:23.927Z,2.03
2022-08-22T02:35:01.319Z,2.27
2022-08-22T02:37:38.501Z,2.33
2022-08-22T02:40:17.063Z,2.43
2022-08-22T02:42:51.296Z,2.20
2022-08-22T02:45:35.900Z,2.30
2022-08-22T02:48:13.040Z,2.20
2022-08-22T02:50:49.479Z,2.20
2022-08-22T02:53:23.160Z,2.00
2022-08-22T02:56:00.267Z,2.10
2022-08-22T02:58:37.426Z,2.30
2022-08-22T03:01:37.152Z,2.20
2022-08-22T03:04:25.979Z,2.10
2022-08-22T03:07:09.164Z,2.07
2022-08-22T03:09:42.742Z,2.20
2022-08-22T03:12:21.374Z,2.40
2022-08-22T03:15:00.263Z,2.03
2022-08-22T03:17:34.451Z,2.13
2022-08-22T03:20:12.132Z,2.33
2022-08-22T03:22:55.067Z,2.10
2022-08-22T03:25:31.793Z,2.30
2022-08-22T03:28:06.727Z,2.23
2022-08-22T03:30:40.718Z,2.17
2022-08-22T03:33:18.085Z,2.10
2022-08-22T03:35:59.705Z,2.10
2022-08-22T03:38:40.894Z,2.10
2022-08-22T03:41:36.313Z,2.17
2022-08-22T03:44:36.910Z,2.37
2022-08-22T03:47:29.303Z,2.00
2022-08-22T03:50:25.891Z,2.23
2022-08-22T03:53:23.169Z,2.00
2022-08-22T03:56:23.989Z,2.20
2022-08-22T03:59:18.403Z,2.03
2022-08-22T04:02:33.429Z,2.10
2022-08-22T04:05:33.995Z,1.60
2022-08-22T04:08:43.862Z,1.90
2022-08-22T04:11:31.079Z,1.83
2022-08-22T04:14:45.302Z,2.10
2022-08-22T04:17:38.620Z,2.30
2022-08-22T04:20:35.703Z,1.80
2022-08-22T04:23:28.104Z,1.70
2022-08-22T04:26:08.253Z,2.10
2022-08-22T04:28:44.955Z,2.70
2022-08-22T04:31:17.219Z,1.83
2022-08-22T04:33:50.574Z,2.20
2022-08-22T04:36:27.561Z,2.10
2022-08-22T04:39:13.838Z,2.27
2022-08-22T04:41:50.644Z,2.40
2022-08-22T04:44:25.259Z,1.90
2022-08-22T04:46:58.961Z,1.93
2022-08-22T04:49:36.984Z,2.27
2022-08-22T04:52:12.002Z,2.03
2022-08-22T04:54:53.086Z,1.87
2022-08-22T04:57:29.176Z,2.00
2022-08-22T05:00:00.393Z,2.50
2022-08-22T05:02:29.068Z,2.20
2022-08-22T05:05:04.528Z,2.10
2022-08-22T05:07:45.608Z,1.80
2022-08-22T05:10:19.528Z,2.10
2022-08-22T05:13:00.562Z,1.90
2022-08-22T05:15:36.725Z,1.80
2022-08-22T05:18:09.454Z,1.87
2022-08-22T05:20:40.421Z,2.10
2022-08-22T05:23:17.298Z,1.90
2022-08-22T05:25:49.677Z,2.30
2022-08-22T05:28:28.876Z,1.80
2022-08-22T05:30:57.358Z,2.30
2022-08-22T05:33:28.986Z,2.30
2022-08-22T05:36:01.250Z,1.83
2022-08-22T05:38:32.703Z,2.53
2022-08-22T05:41:07.971Z,2.00
2022-08-22T05:43:42.262Z,2.33
2022-08-22T05:46:18.924Z,2.17
2022-08-22T05:48:56.514Z,2.50
2022-08-22T05:51:28.665Z,2.33
2022-08-22T05:54:09.089Z,2.57
2022-08-22T05:56:42.749Z,3.00
2022-08-22T05:59:23.335Z,2.60
2022-08-22T06:02:01.300Z,2.70
2022-08-22T06:04:36.592Z,2.80
2022-08-22T06:07:10.204Z,2.63
2022-08-22T06:10:04.763Z,2.73
2022-08-22T06:12:39.185Z,2.63
2022-08-22T06:15:20.951Z,3.07
2022-08-22T06:17:51.691Z,2.87
2022-08-22T06:20:22.680Z,2.30
2022-08-22T06:22:53.931Z,2.33
2022-08-22T06:25:26.503Z,2.87
2022-08-22T06:27:56.997Z,2.63
2022-08-22T06:30:30.031Z,2.43
2022-08-22T06:33:03.135Z,2.70
2022-08-22T06:35:55.115Z,2.77
2022-08-22T06:38:29.558Z,2.50
2022-08-22T06:41:00.549Z,2.30
2022-08-22T06:43:38.776Z,2.63
2022-08-22T06:46:08.557Z,2.90
2022-08-22T06:48:37.996Z,2.67
2022-08-22T06:51:09.389Z,2.50
2022-08-22T06:53:47.833Z,3.03
2022-08-22T06:56:21.959Z,2.60
2022-08-22T06:58:53.881Z,2.93
2022-08-22T07:01:26.269Z,3.33
2022-08-22T07:03:59.499Z,3.03
2022-08-22T07:06:32.258Z,2.80
2022-08-22T07:09:00.482Z,3.00
2022-08-22T07:11:39.465Z,2.50
2022-08-22T07:14:11.435Z,2.60
2022-08-22T07:16:44.674Z,2.47
2022-08-22T07:19:26.031Z,2.83
2022-08-22T07:21:54.758Z,2.57
2022-08-22T07:24:29.503Z,2.50
2022-08-22T07:27:09.393Z,2.60
2022-08-22T07:29:49.156Z,2.90
2022-08-22T07:32:22.334Z,2.60
2022-08-22T07:35:06.330Z,2.77
2022-08-22T07:37:49.203Z,3.00
2022-08-22T07:40:25.012Z,2.47
2022-08-22T07:43:00.528Z,3.27
2022-08-22T07:45:38.700Z,2.80
2022-08-22T07:48:25.869Z,2.43
2022-08-22T07:51:04.451Z,2.50
2022-08-22T07:53:40.679Z,2.23
2022-08-22T07:56:16.773Z,2.13
2022-08-22T07:58:49.359Z,2.43
2022-08-22T08:01:21.370Z,1.97
2022-08-22T08:03:55.482Z,2.10
2022-08-22T08:06:28.808Z,2.10
2022-08-22T08:08:58.539Z,2.17
2022-08-22T08:11:31.158Z,2.50
2022-08-22T08:14:03.663Z,2.10
2022-08-22T08:16:42.445Z,2.30
2022-08-22T08:19:14.094Z,2.37
2022-08-22T08:21:58.061Z,2.73
2022-08-22T08:24:37.086Z,2.10
2022-08-22T08:27:32.205Z,2.17
2022-08-22T08:30:15.223Z,1.80
2022-08-22T08:32:49.133Z,2.33
2022-08-22T08:35:25.431Z,2.57
2022-08-22T08:37:59.283Z,2.13
2022-08-22T08:40:55.347Z,1.80
2022-08-22T08:43:31.360Z,1.90
2022-08-22T08:46:25.737Z,2.33
2022-08-22T08:49:33.660Z,2.17
2022-08-22T08:52:24.416Z,2.23
2022-08-22T08:55:02.286Z,2.10
2022-08-22T08:58:06.742Z,2.00
2022-08-22T09:00:51.762Z,2.00
2022-08-22T09:03:40.182Z,1.93
2022-08-22T09:06:42.372Z,1.60
2022-08-22T09:09:52.287Z,1.77
2022-08-22T09:13:00.550Z,2.33
2022-08-22T09:15:55.011Z,2.00
2022-08-22T09:19:15.687Z,2.60
2022-08-22T09:22:14.488Z,1.70
2022-08-22T09:25:01.502Z,2.37
2022-08-22T09:27:38.449Z,2.30
2022-08-22T09:33:02.020Z,1.63
2022-08-22T09:35:43.703Z,2.30
2022-08-22T09:38:33.227Z,1.70
2022-08-22T09:41:14.883Z,2.00
2022-08-22T09:43:48.795Z,2.42
2022-08-22T09:46:31.443Z,1.70
2022-08-22T09:49:10.533Z,1.67
2022-08-22T09:51:43.211Z,1.77
2022-08-22T09:54:35.020Z,2.07
2022-08-22T09:57:22.491Z,2.03
2022-08-22T10:00:09.543Z,1.80
2022-08-22T10:02:45.359Z,2.10
2022-08-22T10:05:40.282Z,2.40
2022-08-22T10:08:33.221Z,1.60
2022-08-22T10:11:12.562Z,1.87
2022-08-22T10:14:00.840Z,1.83
2022-08-22T10:16:44.148Z,1.90
2022-08-22T10:19:23.883Z,1.70
2022-08-22T10:22:23.135Z,1.70
2022-08-22T10:25:01.031Z,2.33
2022-08-22T10:27:59.024Z,2.17
2022-08-22T10:30:34.971Z,1.80
2022-08-22T10:33:08.887Z,1.70
2022-08-22T10:35:54.765Z,1.27
2022-08-22T10:38:27.145Z,1.70
2022-08-22T10:41:03.494Z,1.60
2022-08-22T10:43:45.914Z,1.42
2022-08-22T10:46:19.909Z,1.77
2022-08-22T10:48:57.157Z,2.05
2022-08-22T10:51:47.289Z,1.60
2022-08-22T10:54:43.324Z,2.07
2022-08-22T10:57:33.989Z,1.48
2022-08-22T11:00:09.069Z,1.60
2022-08-22T11:02:49.797Z,1.47
2022-08-22T11:05:31.149Z,1.73
2022-08-22T11:08:23.826Z,1.30
2022-08-22T11:11:07.398Z,1.30
2022-08-22T11:13:43.363Z,1.70
2022-08-22T11:16:26.316Z,1.50
2022-08-22T11:19:15.172Z,1.52
2022-08-22T11:21:58.980Z,1.40
2022-08-22T11:25:11.262Z,1.00
2022-08-22T11:27:50.951Z,1.52
2022-08-22T11:30:28.060Z,1.20
2022-08-22T11:33:46.926Z,1.48
2022-08-22T11:36:36.896Z,2.10
2022-08-22T11:39:28.224Z,1.30
2022-08-22T11:42:05.944Z,1.48
2022-08-22T11:44:43.025Z,1.40
2022-08-22T11:47:27.095Z,1.45
2022-08-22T11:50:04.015Z,1.85
2022-08-22T11:53:17.856Z,1.80
2022-08-22T11:56:00.223Z,1.77
2022-08-22T11:58:51.812Z,1.50
2022-08-22T12:01:26.006Z,1.45
2022-08-22T12:04:19.229Z,1.48
2022-08-22T12:07:01.843Z,1.80
2022-08-22T12:09:55.374Z,1.63
2022-08-22T12:12:44.323Z,1.80
2022-08-22T12:15:25.931Z,1.63
2022-08-22T12:18:29.888Z,1.52
2022-08-22T12:21:25.145Z,1.65
2022-08-22T12:24:26.877Z,1.70
2022-08-22T12:27:09.670Z,1.75
2022-08-22T12:29:50.818Z,1.90
2022-08-22T12:32:45.795Z,1.85
2022-08-22T12:35:31.099Z,1.42
2022-08-22T12:38:28.316Z,1.75
2022-08-22T12:41:28.380Z,1.60
2022-08-22T12:44:17.948Z,1.63
2022-08-22T12:47:04.481Z,1.35
2022-08-22T12:49:49.927Z,1.83
2022-08-22T12:52:33.151Z,1.80
2022-08-22T12:55:25.039Z,1.80
2022-08-22T12:58:09.684Z,1.90
2022-08-22T13:00:42.130Z,1.65
2022-08-22T13:03:22.780Z,1.60
2022-08-22T13:05:56.929Z,1.70
2022-08-22T13:08:32.305Z,1.70
2022-08-22T13:11:03.137Z,1.67
2022-08-22T13:13:38.821Z,1.50
2022-08-22T13:16:11.730Z,2.03
2022-08-22T13:18:53.377Z,1.88
2022-08-22T13:21:31.426Z,1.75
2022-08-22T13:24:10.450Z,1.60
2022-08-22T13:26:49.004Z,1.80
2022-08-22T13:29:26.635Z,1.58
2022-08-22T13:32:01.877Z,1.60
2022-08-22T13:34:45.549Z,1.65
2022-08-22T13:37:17.608Z,1.70
2022-08-22T13:39:50.331Z,1.45
2022-08-22T13:42:30.779Z,1.58
2022-08-22T13:45:02.598Z,1.75
2022-08-22T13:47:34.414Z,1.60
2022-08-22T13:50:13.906Z,1.40
2022-08-22T13:52:49.389Z,1.40
2022-08-22T13:55:29.665Z,1.63
2022-08-22T13:58:03.321Z,1.40
2022-08-22T14:01:17.537Z,1.27
2022-08-22T14:03:49.887Z,1.88
2022-08-22T14:06:41.332Z,1.40
2022-08-22T14:09:31.389Z,1.45
2022-08-22T14:12:12.247Z,1.40
2022-08-22T14:14:43.417Z,1.40
2022-08-22T14:17:18.234Z,1.40
2022-08-22T14:19:58.787Z,1.20
2022-08-22T14:22:35.335Z,1.08
2022-08-22T14:25:07.607Z,1.40
2022-08-22T14:27:39.976Z,1.30
2022-08-22T14:33:29.474Z,1.52
2022-08-22T14:36:02.020Z,1.40
2022-08-22T14:38:40.613Z,1.88
2022-08-22T14:41:26.564Z,1.58
2022-08-22T14:43:59.764Z,1.60
2022-08-22T14:46:34.902Z,1.65
2022-08-22T14:49:33.836Z,1.60
2022-08-22T14:52:10.055Z,1.63
2022-08-22T14:54:39.855Z,1.55
2022-08-22T14:57:19.831Z,1.70
2022-08-22T14:59:51.072Z,1.77
2022-08-22T15:02:27.668Z,1.70
2022-08-22T15:04:57.230Z,1.55
2022-08-22T15:07:28.360Z,1.85
2022-08-22T15:10:06.118Z,2.17
2022-08-22T15:12:39.799Z,1.77
2022-08-22T15:15:14.139Z,1.65
2022-08-22T15:17:44.741Z,1.83
2022-08-22T15:20:28.208Z,1.90
2022-08-22T15:23:01.357Z,1.70
2022-08-22T15:25:34.265Z,1.65
2022-08-22T15:28:14.393Z,1.98
2022-08-22T15:31:03.453Z,1.88
2022-08-22T15:33:34.436Z,1.90
2022-08-22T15:36:15.835Z,1.80
2022-08-22T15:38:48.070Z,1.55
2022-08-22T15:41:45.836Z,1.70
2022-08-22T15:44:32.967Z,1.55
2022-08-22T15:47:27.081Z,1.60
2022-08-22T15:50:00.838Z,1.60
2022-08-22T15:52:31.800Z,1.85
2022-08-22T15:55:17.360Z,1.75
2022-08-22T15:58:02.088Z,1.60
2022-08-22T16:00:44.824Z,1.80
2022-08-22T16:03:25.145Z,1.90
2022-08-22T16:05:56.332Z,1.88
2022-08-22T16:08:32.750Z,1.88
2022-08-22T16:11:32.795Z,1.50
2022-08-22T16:14:24.528Z,1.83
2022-08-22T16:16:57.529Z,1.65
2022-08-22T16:19:27.330Z,2.13
2022-08-22T16:22:16.306Z,1.45
2022-08-22T16:25:17.181Z,1.80
2022-08-22T16:28:04.287Z,1.73
2022-08-22T16:30:39.618Z,1.65
2022-08-22T16:33:18.000Z,1.70
2022-08-22T16:36:25.674Z,1.80
2022-08-22T16:38:57.840Z,1.80
2022-08-22T16:41:30.037Z,1.98
2022-08-22T16:44:38.180Z,2.08
2022-08-22T16:47:16.883Z,1.65
2022-08-22T16:50:03.239Z,2.20
2022-08-22T16:52:53.326Z,1.65
2022-08-22T16:56:05.588Z,1.50
2022-08-22T16:59:22.947Z,1.83
2022-08-22T17:02:08.389Z,1.70
2022-08-22T17:04:50.358Z,1.73
2022-08-22T17:07:32.050Z,1.90
2022-08-22T17:10:19.989Z,1.65
2022-08-22T17:13:01.983Z,1.60
2022-08-22T17:15:37.045Z,1.70
2022-08-22T17:18:25.093Z,1.70
2022-08-22T17:21:12.359Z,1.60
2022-08-22T17:23:48.537Z,1.60
2022-08-22T17:26:27.812Z,1.38
2022-08-22T17:29:11.473Z,2.05
2022-08-22T17:31:49.962Z,1.40
2022-08-22T17:34:38.458Z,1.30
2022-08-22T17:37:22.138Z,1.55
2022-08-22T17:40:04.108Z,1.30
2022-08-22T17:43:08.583Z,1.52
2022-08-22T17:45:50.461Z,1.60
2022-08-22T17:48:26.054Z,1.73
2022-08-22T17:50:59.263Z,1.55
2022-08-22T17:53:34.666Z,1.55
2022-08-22T17:56:14.435Z,1.67
2022-08-22T17:58:49.703Z,1.65
2022-08-22T18:01:39.760Z,1.80
2022-08-22T18:04:14.848Z,1.50
2022-08-22T18:06:49.379Z,1.90
2022-08-22T18:09:35.597Z,1.58
2022-08-22T18:12:19.710Z,1.65
2022-08-22T18:14:53.365Z,1.67
2022-08-22T18:17:33.086Z,1.55
2022-08-22T18:20:07.697Z,2.10
2022-08-22T18:22:45.289Z,1.77
2022-08-22T18:25:32.804Z,2.38
2022-08-22T18:28:05.668Z,1.90
2022-08-22T18:30:47.783Z,2.17
2022-08-22T18:33:23.769Z,1.58
2022-08-22T18:36:01.344Z,2.10
2022-08-22T18:38:36.161Z,2.38
2022-08-22T18:41:14.689Z,2.20
2022-08-22T18:43:48.483Z,2.00
2022-08-22T18:46:41.887Z,1.70
2022-08-22T18:49:43.603Z,2.25
2022-08-22T18:52:34.581Z,1.85
2022-08-22T18:55:41.790Z,1.77
2022-08-22T18:58:31.684Z,1.60
2022-08-22T19:01:18.231Z,1.92
2022-08-22T19:04:28.386Z,2.22
2022-08-22T19:07:16.972Z,2.30
2022-08-22T19:10:08.536Z,1.98
2022-08-22T19:13:03.656Z,2.00
2022-08-22T19:15:46.439Z,2.17
2022-08-22T19:18:30.262Z,2.28
2022-08-22T19:21:42.863Z,2.10
2022-08-22T19:24:33.421Z,1.70
2022-08-22T19:27:31.232Z,1.88
2022-08-22T19:30:03.422Z,1.98
2022-08-22T19:33:05.934Z,2.25
2022-08-22T19:35:44.002Z,2.30
2022-08-22T19:38:13.629Z,2.25
2022-08-22T19:40:58.272Z,2.20
2022-08-22T19:43:37.492Z,2.00
2022-08-22T19:46:08.921Z,2.35
2022-08-22T19:48:47.743Z,2.00
2022-08-22T19:51:28.977Z,2.03
2022-08-22T19:54:16.613Z,2.00
2022-08-22T19:57:02.913Z,2.20
2022-08-22T19:59:50.552Z,1.90
2022-08-22T20:02:32.101Z,2.00
2022-08-22T20:05:15.194Z,1.95
2022-08-22T20:07:55.060Z,2.22
2022-08-22T20:10:31.408Z,2.25
2022-08-22T20:13:07.593Z,2.10
2022-08-22T20:16:08.471Z,2.00
2022-08-22T20:19:14.399Z,1.95
2022-08-22T20:22:00.167Z,1.88
2022-08-22T20:24:40.022Z,2.13
2022-08-22T20:27:15.321Z,2.00
2022-08-22T20:29:49.553Z,2.00
2022-08-22T20:32:21.223Z,1.98
2022-08-22T20:34:54.949Z,1.83
2022-08-22T20:37:45.454Z,1.90
2022-08-22T20:40:53.573Z,2.20
2022-08-22T20:43:20.932Z,1.88
2022-08-22T20:45:59.546Z,1.65
2022-08-22T20:48:36.342Z,1.67
2022-08-22T20:51:06.470Z,1.77
2022-08-22T20:53:37.294Z,1.90
2022-08-22T20:56:08.156Z,1.58
2022-08-22T20:58:38.944Z,1.77
2022-08-22T21:01:11.359Z,2.03
2022-08-22T21:03:44.682Z,1.67
2022-08-22T21:06:16.336Z,1.60
2022-08-22T21:09:07.720Z,1.80
2022-08-22T21:11:40.577Z,1.60
2022-08-22T21:14:22.684Z,1.70
2022-08-22T21:16:51.278Z,2.08
2022-08-22T21:19:21.400Z,1.70
2022-08-22T21:21:49.471Z,1.90
2022-08-22T21:24:18.851Z,1.92
2022-08-22T21:26:52.915Z,1.73
2022-08-22T21:29:23.564Z,1.65
2022-08-22T21:31:56.181Z,2.10
2022-08-22T21:34:31.395Z,2.03
2022-08-22T21:37:02.001Z,1.95
2022-08-22T21:39:36.832Z,2.00
2022-08-22T21:42:13.809Z,2.08
2022-08-22T21:44:44.324Z,2.17
2022-08-22T21:47:30.677Z,2.13
2022-08-22T21:50:02.328Z,2.10
2022-08-22T21:52:32.417Z,1.55
2022-08-22T21:55:17.383Z,1.77
2022-08-22T21:57:45.409Z,1.92
2022-08-22T22:00:48.853Z,1.92
2022-08-22T22:03:21.299Z,1.85
2022-08-22T22:05:54.898Z,2.03
2022-08-22T22:08:22.992Z,1.75
2022-08-22T22:11:01.197Z,2.10
2022-08-22T22:13:29.993Z,1.90
2022-08-22T22:15:58.359Z,2.00
2022-08-22T22:18:30.980Z,2.00
2022-08-22T22:20:59.503Z,2.10
2022-08-22T22:23:27.902Z,1.98
2022-08-22T22:26:01.480Z,1.83
2022-08-22T22:28:32.891Z,2.50
2022-08-22T22:31:04.747Z,2.40
2022-08-22T22:33:36.636Z,1.95
2022-08-22T22:36:07.859Z,1.58
2022-08-22T22:38:35.971Z,1.75
2022-08-22T22:41:05.280Z,1.75
2022-08-22T22:43:33.794Z,2.13
2022-08-22T22:46:01.955Z,1.95
2022-08-22T22:48:31.306Z,1.88
2022-08-22T22:50:59.242Z,2.22
2022-08-22T22:53:33.823Z,2.40
2022-08-22T22:56:12.814Z,2.40
2022-08-22T22:58:42.335Z,2.30
2022-08-22T23:01:12.518Z,2.13
2022-08-22T23:03:41.033Z,2.13
2022-08-22T23:06:12.714Z,2.38
2022-08-22T23:08:40.722Z,2.17
2022-08-22T23:11:14.596Z,2.10
2022-08-22T23:13:43.357Z,2.23
2022-08-22T23:16:14.623Z,2.42
2022-08-22T23:18:43.191Z,2.13
2022-08-22T23:21:12.543Z,2.78
2022-08-22T23:23:40.912Z,2.13
2022-08-22T23:26:09.632Z,2.15
2022-08-22T23:28:39.100Z,2.00
2022-08-22T23:31:12.283Z,2.20
2022-08-22T23:33:40.272Z,2.10
2022-08-22T23:36:12.184Z,2.10
2022-08-22T23:38:40.545Z,1.93
2022-08-22T23:41:10.149Z,2.27
2022-08-22T23:43:43.324Z,2.07
2022-08-22T23:46:11.913Z,1.90
2022-08-22T23:48:40.091Z,2.17
2022-08-22T23:51:08.664Z,2.03
2022-08-22T23:53:36.915Z,1.90
2022-08-22T23:56:19.700Z,2.07
2022-08-22T23:58:49.483Z,2.00
